sensor_id;sensor_type;location;lat;lon;timestamp;temperature;humidity
26037;DHT22;13810;48.376;10.944;2023-05-19T00:00:31;9.90;99.90
26037;DHT22;13810;48.376;10.944;2023-05-19T00:01:02;9.90;99.90
26037;DHT22;13810;48.376;10.944;2023-05-19T00:01:33;9.90;99.90
26037;DHT22;13810;48.376;10.944;2023-05-19T00:02:07;9.90;99.90
26037;DHT22;13810;48.376;10.944;2023-05-19T00:02:38;9.90;99.90
26037;DHT22;13810;48.376;10.944;2023-05-19T00:03:09;10.00;99.90
26037;DHT22;13810;48.376;10.944;2023-05-19T00:03:53;9.90;99.90
26037;DHT22;13810;48.376;10.944;2023-05-19T00:04:25;9.90;99.90
26037;DHT22;13810;48.376;10.944;2023-05-19T00:04:56;9.90;99.90
26037;DHT22;13810;48.376;10.944;2023-05-19T00:05:28;9.90;99.90
26037;DHT22;13810;48.376;10.944;2023-05-19T00:06:01;9.90;99.90
26037;DHT22;13810;48.376;10.944;2023-05-19T00:06:32;9.90;99.90
26037;DHT22;13810;48.376;10.944;2023-05-19T00:07:03;9.90;99.90
26037;DHT22;13810;48.376;10.944;2023-05-19T00:07:37;9.90;99.90
26037;DHT22;13810;48.376;10.944;2023-05-19T00:08:09;9.90;99.90
26037;DHT22;13810;48.376;10.944;2023-05-19T00:08:40;9.90;99.90
26037;DHT22;13810;48.376;10.944;2023-05-19T00:09:11;9.90;99.90
26037;DHT22;13810;48.376;10.944;2023-05-19T00:09:42;9.90;99.90
26037;DHT22;13810;48.376;10.944;2023-05-19T00:10:13;9.90;99.90
26037;DHT22;13810;48.376;10.944;2023-05-19T00:10:44;9.90;99.90
26037;DHT22;13810;48.376;10.944;2023-05-19T00:11:15;9.90;99.90
26037;DHT22;13810;48.376;10.944;2023-05-19T00:11:46;9.90;99.90
26037;DHT22;13810;48.376;10.944;2023-05-19T00:12:17;9.90;99.90
26037;DHT22;13810;48.376;10.944;2023-05-19T00:12:48;10.00;99.90
26037;DHT22;13810;48.376;10.944;2023-05-19T00:13:18;9.90;99.90
26037;DHT22;13810;48.376;10.944;2023-05-19T00:13:50;9.90;99.90
26037;DHT22;13810;48.376;10.944;2023-05-19T00:14:22;9.90;99.90
26037;DHT22;13810;48.376;10.944;2023-05-19T00:14:53;9.90;99.90
26037;DHT22;13810;48.376;10.944;2023-05-19T00:15:24;9.90;99.90
26037;DHT22;13810;48.376;10.944;2023-05-19T00:15:55;9.90;99.90
26037;DHT22;13810;48.376;10.944;2023-05-19T00:16:28;9.90;99.90
26037;DHT22;13810;48.376;10.944;2023-05-19T00:16:59;9.90;99.90
26037;DHT22;13810;48.376;10.944;2023-05-19T00:17:31;9.90;99.90
26037;DHT22;13810;48.376;10.944;2023-05-19T00:18:03;10.00;99.90
26037;DHT22;13810;48.376;10.944;2023-05-19T00:18:34;9.90;99.90
26037;DHT22;13810;48.376;10.944;2023-05-19T00:19:05;9.90;99.90
26037;DHT22;13810;48.376;10.944;2023-05-19T00:19:39;9.90;99.90
26037;DHT22;13810;48.376;10.944;2023-05-19T00:20:10;9.90;99.90
26037;DHT22;13810;48.376;10.944;2023-05-19T00:20:42;9.90;99.90
26037;DHT22;13810;48.376;10.944;2023-05-19T00:21:13;9.90;99.90
26037;DHT22;13810;48.376;10.944;2023-05-19T00:21:43;9.90;99.90
26037;DHT22;13810;48.376;10.944;2023-05-19T00:22:14;9.80;99.90
26037;DHT22;13810;48.376;10.944;2023-05-19T00:22:45;9.90;99.90
26037;DHT22;13810;48.376;10.944;2023-05-19T00:23:16;9.90;99.90
26037;DHT22;13810;48.376;10.944;2023-05-19T00:23:46;9.90;99.90
26037;DHT22;13810;48.376;10.944;2023-05-19T00:24:17;9.90;99.90
26037;DHT22;13810;48.376;10.944;2023-05-19T00:24:47;9.90;99.90
26037;DHT22;13810;48.376;10.944;2023-05-19T00:25:18;9.90;99.90
26037;DHT22;13810;48.376;10.944;2023-05-19T00:25:49;9.80;99.90
26037;DHT22;13810;48.376;10.944;2023-05-19T00:26:20;9.90;99.90
26037;DHT22;13810;48.376;10.944;2023-05-19T00:26:53;9.80;99.90
26037;DHT22;13810;48.376;10.944;2023-05-19T00:27:24;9.90;99.90
26037;DHT22;13810;48.376;10.944;2023-05-19T00:27:54;9.80;99.90
26037;DHT22;13810;48.376;10.944;2023-05-19T00:28:25;9.90;99.90
26037;DHT22;13810;48.376;10.944;2023-05-19T00:28:56;9.80;99.90
26037;DHT22;13810;48.376;10.944;2023-05-19T00:29:27;9.80;99.90
26037;DHT22;13810;48.376;10.944;2023-05-19T00:29:57;9.90;99.90
26037;DHT22;13810;48.376;10.944;2023-05-19T00:30:29;9.80;99.90
26037;DHT22;13810;48.376;10.944;2023-05-19T00:31:00;9.80;99.90
26037;DHT22;13810;48.376;10.944;2023-05-19T00:31:31;9.80;99.90
26037;DHT22;13810;48.376;10.944;2023-05-19T00:32:03;9.80;99.90
26037;DHT22;13810;48.376;10.944;2023-05-19T00:32:34;9.80;99.90
26037;DHT22;13810;48.376;10.944;2023-05-19T00:33:05;9.80;99.90
26037;DHT22;13810;48.376;10.944;2023-05-19T00:33:35;9.80;99.90
26037;DHT22;13810;48.376;10.944;2023-05-19T00:34:06;9.80;99.90
26037;DHT22;13810;48.376;10.944;2023-05-19T00:34:36;9.80;99.90
26037;DHT22;13810;48.376;10.944;2023-05-19T00:35:07;9.80;99.90
26037;DHT22;13810;48.376;10.944;2023-05-19T00:35:38;9.80;99.90
26037;DHT22;13810;48.376;10.944;2023-05-19T00:36:10;9.80;99.90
26037;DHT22;13810;48.376;10.944;2023-05-19T00:36:40;9.90;99.90
26037;DHT22;13810;48.376;10.944;2023-05-19T00:37:11;9.90;99.90
26037;DHT22;13810;48.376;10.944;2023-05-19T00:37:42;9.80;99.90
26037;DHT22;13810;48.376;10.944;2023-05-19T00:38:12;9.80;99.90
26037;DHT22;13810;48.376;10.944;2023-05-19T00:38:43;9.80;99.90
26037;DHT22;13810;48.376;10.944;2023-05-19T00:39:13;9.90;99.90
26037;DHT22;13810;48.376;10.944;2023-05-19T00:39:44;9.90;99.90
26037;DHT22;13810;48.376;10.944;2023-05-19T00:40:15;9.90;99.90
26037;DHT22;13810;48.376;10.944;2023-05-19T00:40:46;9.90;99.90
26037;DHT22;13810;48.376;10.944;2023-05-19T00:41:17;9.90;99.90
26037;DHT22;13810;48.376;10.944;2023-05-19T00:41:47;9.90;99.90
26037;DHT22;13810;48.376;10.944;2023-05-19T00:42:20;9.80;99.90
26037;DHT22;13810;48.376;10.944;2023-05-19T00:42:50;9.80;99.90
26037;DHT22;13810;48.376;10.944;2023-05-19T00:43:21;9.80;99.90
26037;DHT22;13810;48.376;10.944;2023-05-19T00:43:52;9.80;99.90
26037;DHT22;13810;48.376;10.944;2023-05-19T00:44:22;9.80;99.90
26037;DHT22;13810;48.376;10.944;2023-05-19T00:44:53;9.90;99.90
26037;DHT22;13810;48.376;10.944;2023-05-19T00:45:24;9.80;99.90
26037;DHT22;13810;48.376;10.944;2023-05-19T00:45:55;9.80;99.90
26037;DHT22;13810;48.376;10.944;2023-05-19T00:46:26;9.80;99.90
26037;DHT22;13810;48.376;10.944;2023-05-19T00:46:57;9.80;99.90
26037;DHT22;13810;48.376;10.944;2023-05-19T00:47:27;9.80;99.90
26037;DHT22;13810;48.376;10.944;2023-05-19T00:47:58;9.80;99.90
26037;DHT22;13810;48.376;10.944;2023-05-19T00:48:28;9.80;99.90
26037;DHT22;13810;48.376;10.944;2023-05-19T00:48:59;9.80;99.90
26037;DHT22;13810;48.376;10.944;2023-05-19T00:49:30;9.80;99.90
26037;DHT22;13810;48.376;10.944;2023-05-19T00:50:00;9.80;99.90
26037;DHT22;13810;48.376;10.944;2023-05-19T00:50:31;9.80;99.90
26037;DHT22;13810;48.376;10.944;2023-05-19T00:51:02;9.80;99.90
26037;DHT22;13810;48.376;10.944;2023-05-19T00:51:35;9.80;99.90
26037;DHT22;13810;48.376;10.944;2023-05-19T00:52:06;9.70;99.90
26037;DHT22;13810;48.376;10.944;2023-05-19T00:52:37;9.80;99.90
26037;DHT22;13810;48.376;10.944;2023-05-19T00:53:08;9.80;99.90
26037;DHT22;13810;48.376;10.944;2023-05-19T00:53:39;9.80;99.90
26037;DHT22;13810;48.376;10.944;2023-05-19T00:54:10;9.80;99.90
26037;DHT22;13810;48.376;10.944;2023-05-19T00:54:41;9.80;99.90
26037;DHT22;13810;48.376;10.944;2023-05-19T00:55:12;9.80;99.90
26037;DHT22;13810;48.376;10.944;2023-05-19T00:55:44;9.70;99.90
26037;DHT22;13810;48.376;10.944;2023-05-19T00:56:15;9.70;99.90
26037;DHT22;13810;48.376;10.944;2023-05-19T00:56:46;9.70;99.90
26037;DHT22;13810;48.376;10.944;2023-05-19T00:57:19;9.70;99.90
26037;DHT22;13810;48.376;10.944;2023-05-19T00:57:50;9.70;99.90
26037;DHT22;13810;48.376;10.944;2023-05-19T00:58:22;9.70;99.90
26037;DHT22;13810;48.376;10.944;2023-05-19T00:58:55;9.70;99.90
26037;DHT22;13810;48.376;10.944;2023-05-19T00:59:26;9.70;99.90
26037;DHT22;13810;48.376;10.944;2023-05-19T00:59:57;9.70;99.90
26037;DHT22;13810;48.376;10.944;2023-05-19T01:00:29;9.70;99.90
26037;DHT22;13810;48.376;10.944;2023-05-19T01:01:00;9.70;99.90
26037;DHT22;13810;48.376;10.944;2023-05-19T01:01:36;9.60;99.90
26037;DHT22;13810;48.376;10.944;2023-05-19T01:02:06;9.60;99.90
26037;DHT22;13810;48.376;10.944;2023-05-19T01:02:37;9.60;99.90
26037;DHT22;13810;48.376;10.944;2023-05-19T01:03:09;9.60;99.90
26037;DHT22;13810;48.376;10.944;2023-05-19T01:03:43;9.60;99.90
26037;DHT22;13810;48.376;10.944;2023-05-19T01:04:20;9.60;99.90
26037;DHT22;13810;48.376;10.944;2023-05-19T01:04:51;9.60;99.90
26037;DHT22;13810;48.376;10.944;2023-05-19T01:05:22;9.60;99.90
26037;DHT22;13810;48.376;10.944;2023-05-19T01:05:53;9.60;99.90
26037;DHT22;13810;48.376;10.944;2023-05-19T01:06:24;9.60;99.90
26037;DHT22;13810;48.376;10.944;2023-05-19T01:06:57;9.60;99.90
26037;DHT22;13810;48.376;10.944;2023-05-19T01:07:27;9.60;99.90
26037;DHT22;13810;48.376;10.944;2023-05-19T01:07:59;9.50;99.90
26037;DHT22;13810;48.376;10.944;2023-05-19T01:08:31;9.50;99.90
26037;DHT22;13810;48.376;10.944;2023-05-19T01:09:02;9.50;99.90
26037;DHT22;13810;48.376;10.944;2023-05-19T01:09:33;9.50;99.90
26037;DHT22;13810;48.376;10.944;2023-05-19T01:10:04;9.50;99.90
26037;DHT22;13810;48.376;10.944;2023-05-19T01:10:35;9.50;99.90
26037;DHT22;13810;48.376;10.944;2023-05-19T01:11:06;9.40;99.90
26037;DHT22;13810;48.376;10.944;2023-05-19T01:11:37;9.40;99.90
26037;DHT22;13810;48.376;10.944;2023-05-19T01:12:08;9.40;99.90
26037;DHT22;13810;48.376;10.944;2023-05-19T01:12:39;9.40;99.90
26037;DHT22;13810;48.376;10.944;2023-05-19T01:13:10;9.40;99.90
26037;DHT22;13810;48.376;10.944;2023-05-19T01:13:41;9.40;99.90
26037;DHT22;13810;48.376;10.944;2023-05-19T01:14:13;9.40;99.90
26037;DHT22;13810;48.376;10.944;2023-05-19T01:14:44;9.40;99.90
26037;DHT22;13810;48.376;10.944;2023-05-19T01:15:15;9.40;99.90
26037;DHT22;13810;48.376;10.944;2023-05-19T01:16:08;9.40;99.90
26037;DHT22;13810;48.376;10.944;2023-05-19T01:16:47;9.40;99.90
26037;DHT22;13810;48.376;10.944;2023-05-19T01:17:26;9.40;99.90
26037;DHT22;13810;48.376;10.944;2023-05-19T01:18:11;9.40;99.90
26037;DHT22;13810;48.376;10.944;2023-05-19T01:19:39;9.30;99.90
26037;DHT22;13810;48.376;10.944;2023-05-19T01:20:38;9.30;99.90
26037;DHT22;13810;48.376;10.944;2023-05-19T01:21:35;9.30;99.90
26037;DHT22;13810;48.376;10.944;2023-05-19T01:22:23;9.30;99.90
26037;DHT22;13810;48.376;10.944;2023-05-19T01:24:41;9.20;99.90
26037;DHT22;13810;48.376;10.944;2023-05-19T01:25:40;9.20;99.90
26037;DHT22;13810;48.376;10.944;2023-05-19T01:27:46;9.10;99.90
26037;DHT22;13810;48.376;10.944;2023-05-19T01:30:42;9.10;99.90
26037;DHT22;13810;48.376;10.944;2023-05-19T01:31:14;9.00;99.90
26037;DHT22;13810;48.376;10.944;2023-05-19T01:31:47;9.00;99.90
26037;DHT22;13810;48.376;10.944;2023-05-19T01:32:20;9.00;99.90
26037;DHT22;13810;48.376;10.944;2023-05-19T01:32:54;9.00;99.90
26037;DHT22;13810;48.376;10.944;2023-05-19T01:33:29;9.00;99.90
26037;DHT22;13810;48.376;10.944;2023-05-19T01:34:00;9.00;99.90
26037;DHT22;13810;48.376;10.944;2023-05-19T01:34:38;8.90;99.90
26037;DHT22;13810;48.376;10.944;2023-05-19T01:35:11;9.00;99.90
26037;DHT22;13810;48.376;10.944;2023-05-19T01:35:44;8.90;99.90
26037;DHT22;13810;48.376;10.944;2023-05-19T01:36:18;8.90;99.90
26037;DHT22;13810;48.376;10.944;2023-05-19T01:36:54;8.90;99.90
26037;DHT22;13810;48.376;10.944;2023-05-19T01:37:26;8.90;99.90
26037;DHT22;13810;48.376;10.944;2023-05-19T01:37:58;8.90;99.90
26037;DHT22;13810;48.376;10.944;2023-05-19T01:38:29;8.90;99.90
26037;DHT22;13810;48.376;10.944;2023-05-19T01:39:01;8.90;99.90
26037;DHT22;13810;48.376;10.944;2023-05-19T01:39:32;8.90;99.90
26037;DHT22;13810;48.376;10.944;2023-05-19T01:40:04;8.90;99.90
26037;DHT22;13810;48.376;10.944;2023-05-19T01:40:37;8.90;99.90
26037;DHT22;13810;48.376;10.944;2023-05-19T01:41:08;8.90;99.90
26037;DHT22;13810;48.376;10.944;2023-05-19T01:41:41;8.90;99.90
26037;DHT22;13810;48.376;10.944;2023-05-19T01:42:13;8.90;99.90
26037;DHT22;13810;48.376;10.944;2023-05-19T01:42:45;8.90;99.90
26037;DHT22;13810;48.376;10.944;2023-05-19T01:43:19;8.90;99.90
26037;DHT22;13810;48.376;10.944;2023-05-19T01:43:50;8.90;99.90
26037;DHT22;13810;48.376;10.944;2023-05-19T01:44:22;8.80;99.90
26037;DHT22;13810;48.376;10.944;2023-05-19T01:44:53;8.80;99.90
26037;DHT22;13810;48.376;10.944;2023-05-19T01:45:29;8.90;99.90
26037;DHT22;13810;48.376;10.944;2023-05-19T01:46:01;8.90;99.90
26037;DHT22;13810;48.376;10.944;2023-05-19T01:46:33;8.80;99.90
26037;DHT22;13810;48.376;10.944;2023-05-19T01:47:04;8.80;99.90
26037;DHT22;13810;48.376;10.944;2023-05-19T01:47:37;8.90;99.90
26037;DHT22;13810;48.376;10.944;2023-05-19T01:48:07;8.90;99.90
26037;DHT22;13810;48.376;10.944;2023-05-19T01:48:38;8.80;99.90
26037;DHT22;13810;48.376;10.944;2023-05-19T01:49:09;8.80;99.90
26037;DHT22;13810;48.376;10.944;2023-05-19T01:49:40;8.80;99.90
26037;DHT22;13810;48.376;10.944;2023-05-19T01:50:11;8.80;99.90
26037;DHT22;13810;48.376;10.944;2023-05-19T01:50:42;8.80;99.90
26037;DHT22;13810;48.376;10.944;2023-05-19T01:51:13;8.80;99.90
26037;DHT22;13810;48.376;10.944;2023-05-19T01:51:43;8.80;99.90
26037;DHT22;13810;48.376;10.944;2023-05-19T01:52:14;8.90;99.90
26037;DHT22;13810;48.376;10.944;2023-05-19T01:52:45;8.80;99.90
26037;DHT22;13810;48.376;10.944;2023-05-19T01:53:16;8.80;99.90
26037;DHT22;13810;48.376;10.944;2023-05-19T01:53:47;8.80;99.90
26037;DHT22;13810;48.376;10.944;2023-05-19T01:54:17;8.80;99.90
26037;DHT22;13810;48.376;10.944;2023-05-19T01:54:48;8.80;99.90
26037;DHT22;13810;48.376;10.944;2023-05-19T01:55:19;8.80;99.90
26037;DHT22;13810;48.376;10.944;2023-05-19T01:55:52;8.80;99.90
26037;DHT22;13810;48.376;10.944;2023-05-19T01:56:37;8.80;99.90
26037;DHT22;13810;48.376;10.944;2023-05-19T01:58:14;8.80;99.90
26037;DHT22;13810;48.376;10.944;2023-05-19T01:58:54;8.80;99.90
26037;DHT22;13810;48.376;10.944;2023-05-19T02:00:15;8.80;99.90
26037;DHT22;13810;48.376;10.944;2023-05-19T02:01:40;8.70;99.90
26037;DHT22;13810;48.376;10.944;2023-05-19T02:02:28;8.70;99.90
26037;DHT22;13810;48.376;10.944;2023-05-19T02:05:26;8.70;99.90
26037;DHT22;13810;48.376;10.944;2023-05-19T02:06:27;8.70;99.90
26037;DHT22;13810;48.376;10.944;2023-05-19T02:07:10;8.70;99.90
26037;DHT22;13810;48.376;10.944;2023-05-19T02:07:44;8.70;99.90
26037;DHT22;13810;48.376;10.944;2023-05-19T02:08:35;8.70;99.90
26037;DHT22;13810;48.376;10.944;2023-05-19T02:09:20;8.60;99.90
26037;DHT22;13810;48.376;10.944;2023-05-19T02:10:29;8.60;99.90
26037;DHT22;13810;48.376;10.944;2023-05-19T02:11:18;8.60;99.90
26037;DHT22;13810;48.376;10.944;2023-05-19T02:12:40;8.60;99.90
26037;DHT22;13810;48.376;10.944;2023-05-19T02:12:47;8.60;99.90
26037;DHT22;13810;48.376;10.944;2023-05-19T02:13:25;8.60;99.90
26037;DHT22;13810;48.376;10.944;2023-05-19T02:14:02;8.60;99.90
26037;DHT22;13810;48.376;10.944;2023-05-19T02:14:57;8.70;99.90
26037;DHT22;13810;48.376;10.944;2023-05-19T02:15:35;8.70;99.90
26037;DHT22;13810;48.376;10.944;2023-05-19T02:16:09;8.70;99.90
26037;DHT22;13810;48.376;10.944;2023-05-19T02:16:44;8.70;99.90
26037;DHT22;13810;48.376;10.944;2023-05-19T02:17:17;8.60;99.90
26037;DHT22;13810;48.376;10.944;2023-05-19T02:17:50;8.70;99.90
26037;DHT22;13810;48.376;10.944;2023-05-19T02:18:23;8.60;99.90
26037;DHT22;13810;48.376;10.944;2023-05-19T02:18:54;8.60;99.90
26037;DHT22;13810;48.376;10.944;2023-05-19T02:19:27;8.60;99.90
26037;DHT22;13810;48.376;10.944;2023-05-19T02:19:58;8.60;99.90
26037;DHT22;13810;48.376;10.944;2023-05-19T02:20:30;8.60;99.90
26037;DHT22;13810;48.376;10.944;2023-05-19T02:21:01;8.60;99.90
26037;DHT22;13810;48.376;10.944;2023-05-19T02:21:32;8.60;99.90
26037;DHT22;13810;48.376;10.944;2023-05-19T02:22:03;8.60;99.90
26037;DHT22;13810;48.376;10.944;2023-05-19T02:22:34;8.60;99.90
26037;DHT22;13810;48.376;10.944;2023-05-19T02:23:04;8.60;99.90
26037;DHT22;13810;48.376;10.944;2023-05-19T02:23:35;8.60;99.90
26037;DHT22;13810;48.376;10.944;2023-05-19T02:24:06;8.60;99.90
26037;DHT22;13810;48.376;10.944;2023-05-19T02:24:36;8.60;99.90
26037;DHT22;13810;48.376;10.944;2023-05-19T02:25:09;8.60;99.90
26037;DHT22;13810;48.376;10.944;2023-05-19T02:25:40;8.50;99.90
26037;DHT22;13810;48.376;10.944;2023-05-19T02:26:11;8.50;99.90
26037;DHT22;13810;48.376;10.944;2023-05-19T02:26:41;8.50;99.90
26037;DHT22;13810;48.376;10.944;2023-05-19T02:27:12;8.50;99.90
26037;DHT22;13810;48.376;10.944;2023-05-19T02:27:43;8.50;99.90
26037;DHT22;13810;48.376;10.944;2023-05-19T02:28:13;8.50;99.90
26037;DHT22;13810;48.376;10.944;2023-05-19T02:28:44;8.50;99.90
26037;DHT22;13810;48.376;10.944;2023-05-19T02:29:15;8.50;99.90
26037;DHT22;13810;48.376;10.944;2023-05-19T02:29:45;8.50;99.90
26037;DHT22;13810;48.376;10.944;2023-05-19T02:30:16;8.40;99.90
26037;DHT22;13810;48.376;10.944;2023-05-19T02:30:47;8.50;99.90
26037;DHT22;13810;48.376;10.944;2023-05-19T02:31:17;8.50;99.90
26037;DHT22;13810;48.376;10.944;2023-05-19T02:31:48;8.50;99.90
26037;DHT22;13810;48.376;10.944;2023-05-19T02:32:19;8.50;99.90
26037;DHT22;13810;48.376;10.944;2023-05-19T02:32:50;8.50;99.90
26037;DHT22;13810;48.376;10.944;2023-05-19T02:33:23;8.40;99.90
26037;DHT22;13810;48.376;10.944;2023-05-19T02:33:55;8.40;99.90
26037;DHT22;13810;48.376;10.944;2023-05-19T02:34:25;8.40;99.90
26037;DHT22;13810;48.376;10.944;2023-05-19T02:34:56;8.40;99.90
26037;DHT22;13810;48.376;10.944;2023-05-19T02:35:27;8.40;99.90
26037;DHT22;13810;48.376;10.944;2023-05-19T02:35:57;8.40;99.90
26037;DHT22;13810;48.376;10.944;2023-05-19T02:36:32;8.40;99.90
26037;DHT22;13810;48.376;10.944;2023-05-19T02:37:04;8.50;99.90
26037;DHT22;13810;48.376;10.944;2023-05-19T02:37:37;8.50;99.90
26037;DHT22;13810;48.376;10.944;2023-05-19T02:38:07;8.50;99.90
26037;DHT22;13810;48.376;10.944;2023-05-19T02:38:38;8.50;99.90
26037;DHT22;13810;48.376;10.944;2023-05-19T02:39:09;8.50;99.90
26037;DHT22;13810;48.376;10.944;2023-05-19T02:39:41;8.50;99.90
26037;DHT22;13810;48.376;10.944;2023-05-19T02:40:12;8.50;99.90
26037;DHT22;13810;48.376;10.944;2023-05-19T02:40:42;8.50;99.90
26037;DHT22;13810;48.376;10.944;2023-05-19T02:41:13;8.50;99.90
26037;DHT22;13810;48.376;10.944;2023-05-19T02:41:43;8.50;99.90
26037;DHT22;13810;48.376;10.944;2023-05-19T02:42:14;8.50;99.90
26037;DHT22;13810;48.376;10.944;2023-05-19T02:42:47;8.50;99.90
26037;DHT22;13810;48.376;10.944;2023-05-19T02:43:18;8.50;99.90
26037;DHT22;13810;48.376;10.944;2023-05-19T02:43:49;8.50;99.90
26037;DHT22;13810;48.376;10.944;2023-05-19T02:44:20;8.50;99.90
26037;DHT22;13810;48.376;10.944;2023-05-19T02:44:50;8.50;99.90
26037;DHT22;13810;48.376;10.944;2023-05-19T02:45:21;8.50;99.90
26037;DHT22;13810;48.376;10.944;2023-05-19T02:45:52;8.50;99.90
26037;DHT22;13810;48.376;10.944;2023-05-19T02:46:23;8.50;99.90
26037;DHT22;13810;48.376;10.944;2023-05-19T02:46:53;8.50;99.90
26037;DHT22;13810;48.376;10.944;2023-05-19T02:47:24;8.50;99.90
26037;DHT22;13810;48.376;10.944;2023-05-19T02:47:55;8.50;99.90
26037;DHT22;13810;48.376;10.944;2023-05-19T02:48:26;8.50;99.90
26037;DHT22;13810;48.376;10.944;2023-05-19T02:48:56;8.50;99.90
26037;DHT22;13810;48.376;10.944;2023-05-19T02:49:27;8.60;99.90
26037;DHT22;13810;48.376;10.944;2023-05-19T02:50:05;8.50;99.90
26037;DHT22;13810;48.376;10.944;2023-05-19T02:50:36;8.60;99.90
26037;DHT22;13810;48.376;10.944;2023-05-19T02:51:07;8.60;99.90
26037;DHT22;13810;48.376;10.944;2023-05-19T02:51:38;8.60;99.90
26037;DHT22;13810;48.376;10.944;2023-05-19T02:52:08;8.60;99.90
26037;DHT22;13810;48.376;10.944;2023-05-19T02:52:39;8.60;99.90
26037;DHT22;13810;48.376;10.944;2023-05-19T02:53:09;8.60;99.90
26037;DHT22;13810;48.376;10.944;2023-05-19T02:53:41;8.60;99.90
26037;DHT22;13810;48.376;10.944;2023-05-19T02:54:12;8.60;99.90
26037;DHT22;13810;48.376;10.944;2023-05-19T02:54:42;8.60;99.90
26037;DHT22;13810;48.376;10.944;2023-05-19T02:55:13;8.60;99.90
26037;DHT22;13810;48.376;10.944;2023-05-19T02:55:46;8.60;99.90
26037;DHT22;13810;48.376;10.944;2023-05-19T02:56:17;8.60;99.90
26037;DHT22;13810;48.376;10.944;2023-05-19T02:56:47;8.60;99.90
26037;DHT22;13810;48.376;10.944;2023-05-19T02:57:18;8.60;99.90
26037;DHT22;13810;48.376;10.944;2023-05-19T02:57:48;8.60;99.90
26037;DHT22;13810;48.376;10.944;2023-05-19T02:58:19;8.60;99.90
26037;DHT22;13810;48.376;10.944;2023-05-19T02:58:50;8.60;99.90
26037;DHT22;13810;48.376;10.944;2023-05-19T02:59:22;8.60;99.90
26037;DHT22;13810;48.376;10.944;2023-05-19T02:59:52;8.60;99.90
26037;DHT22;13810;48.376;10.944;2023-05-19T03:00:23;8.60;99.90
26037;DHT22;13810;48.376;10.944;2023-05-19T03:00:54;8.60;99.90
26037;DHT22;13810;48.376;10.944;2023-05-19T03:01:25;8.60;99.90
26037;DHT22;13810;48.376;10.944;2023-05-19T03:01:58;8.60;99.90
26037;DHT22;13810;48.376;10.944;2023-05-19T03:02:30;8.60;99.90
26037;DHT22;13810;48.376;10.944;2023-05-19T03:03:03;8.60;99.90
26037;DHT22;13810;48.376;10.944;2023-05-19T03:03:34;8.60;99.90
26037;DHT22;13810;48.376;10.944;2023-05-19T03:04:04;8.60;99.90
26037;DHT22;13810;48.376;10.944;2023-05-19T03:04:35;8.60;99.90
26037;DHT22;13810;48.376;10.944;2023-05-19T03:05:12;8.60;99.90
26037;DHT22;13810;48.376;10.944;2023-05-19T03:05:43;8.60;99.90
26037;DHT22;13810;48.376;10.944;2023-05-19T03:06:14;8.60;99.90
26037;DHT22;13810;48.376;10.944;2023-05-19T03:06:45;8.60;99.90
26037;DHT22;13810;48.376;10.944;2023-05-19T03:07:16;8.60;99.90
26037;DHT22;13810;48.376;10.944;2023-05-19T03:07:47;8.60;99.90
26037;DHT22;13810;48.376;10.944;2023-05-19T03:08:17;8.60;99.90
26037;DHT22;13810;48.376;10.944;2023-05-19T03:08:49;8.60;99.90
26037;DHT22;13810;48.376;10.944;2023-05-19T03:09:20;8.60;99.90
26037;DHT22;13810;48.376;10.944;2023-05-19T03:09:51;8.60;99.90
26037;DHT22;13810;48.376;10.944;2023-05-19T03:10:22;8.60;99.90
26037;DHT22;13810;48.376;10.944;2023-05-19T03:10:53;8.60;99.90
26037;DHT22;13810;48.376;10.944;2023-05-19T03:11:23;8.60;99.90
26037;DHT22;13810;48.376;10.944;2023-05-19T03:11:54;8.60;99.90
26037;DHT22;13810;48.376;10.944;2023-05-19T03:12:24;8.60;99.90
26037;DHT22;13810;48.376;10.944;2023-05-19T03:12:55;8.60;99.90
26037;DHT22;13810;48.376;10.944;2023-05-19T03:13:26;8.60;99.90
26037;DHT22;13810;48.376;10.944;2023-05-19T03:13:57;8.60;99.90
26037;DHT22;13810;48.376;10.944;2023-05-19T03:14:28;8.70;99.90
26037;DHT22;13810;48.376;10.944;2023-05-19T03:14:59;8.60;99.90
26037;DHT22;13810;48.376;10.944;2023-05-19T03:15:30;8.70;99.90
26037;DHT22;13810;48.376;10.944;2023-05-19T03:16:01;8.70;99.90
26037;DHT22;13810;48.376;10.944;2023-05-19T03:16:32;8.60;99.90
26037;DHT22;13810;48.376;10.944;2023-05-19T03:17:03;8.60;99.90
26037;DHT22;13810;48.376;10.944;2023-05-19T03:17:36;8.70;99.90
26037;DHT22;13810;48.376;10.944;2023-05-19T03:18:08;8.60;99.90
26037;DHT22;13810;48.376;10.944;2023-05-19T03:18:40;8.60;99.90
26037;DHT22;13810;48.376;10.944;2023-05-19T03:19:10;8.60;99.90
26037;DHT22;13810;48.376;10.944;2023-05-19T03:19:41;8.70;99.90
26037;DHT22;13810;48.376;10.944;2023-05-19T03:20:12;8.70;99.90
26037;DHT22;13810;48.376;10.944;2023-05-19T03:20:45;8.70;99.90
26037;DHT22;13810;48.376;10.944;2023-05-19T03:21:15;8.70;99.90
26037;DHT22;13810;48.376;10.944;2023-05-19T03:21:46;8.70;99.90
26037;DHT22;13810;48.376;10.944;2023-05-19T03:22:17;8.70;99.90
26037;DHT22;13810;48.376;10.944;2023-05-19T03:22:48;8.70;99.90
26037;DHT22;13810;48.376;10.944;2023-05-19T03:23:22;8.70;99.90
26037;DHT22;13810;48.376;10.944;2023-05-19T03:23:52;8.70;99.90
26037;DHT22;13810;48.376;10.944;2023-05-19T03:24:24;8.70;99.90
26037;DHT22;13810;48.376;10.944;2023-05-19T03:24:54;8.70;99.90
26037;DHT22;13810;48.376;10.944;2023-05-19T03:25:25;8.70;99.90
26037;DHT22;13810;48.376;10.944;2023-05-19T03:25:56;8.80;99.90
26037;DHT22;13810;48.376;10.944;2023-05-19T03:26:26;8.80;99.90
26037;DHT22;13810;48.376;10.944;2023-05-19T03:26:58;8.70;99.90
26037;DHT22;13810;48.376;10.944;2023-05-19T03:27:29;8.80;99.90
26037;DHT22;13810;48.376;10.944;2023-05-19T03:27:59;8.80;99.90
26037;DHT22;13810;48.376;10.944;2023-05-19T03:28:30;8.80;99.90
26037;DHT22;13810;48.376;10.944;2023-05-19T03:29:01;8.70;99.90
26037;DHT22;13810;48.376;10.944;2023-05-19T03:29:32;8.80;99.90
26037;DHT22;13810;48.376;10.944;2023-05-19T03:30:03;8.80;99.90
26037;DHT22;13810;48.376;10.944;2023-05-19T03:30:34;8.80;99.90
26037;DHT22;13810;48.376;10.944;2023-05-19T03:31:05;8.80;99.90
26037;DHT22;13810;48.376;10.944;2023-05-19T03:31:35;8.70;99.90
26037;DHT22;13810;48.376;10.944;2023-05-19T03:32:06;8.70;99.90
26037;DHT22;13810;48.376;10.944;2023-05-19T03:32:37;8.80;99.90
26037;DHT22;13810;48.376;10.944;2023-05-19T03:33:07;8.80;99.90
26037;DHT22;13810;48.376;10.944;2023-05-19T03:33:38;8.80;99.90
26037;DHT22;13810;48.376;10.944;2023-05-19T03:34:09;8.80;99.90
26037;DHT22;13810;48.376;10.944;2023-05-19T03:34:39;8.80;99.90
26037;DHT22;13810;48.376;10.944;2023-05-19T03:35:10;8.80;99.90
26037;DHT22;13810;48.376;10.944;2023-05-19T03:35:40;8.80;99.90
26037;DHT22;13810;48.376;10.944;2023-05-19T03:36:11;8.80;99.90
26037;DHT22;13810;48.376;10.944;2023-05-19T03:36:42;8.80;99.90